This is the latest recevied weather packets stored in our database for station/object EA7AIS-10. If no packets are shown the sender has not sent any weather packets the latest 10 day(s).
| Time | Temp. | Humidity | Pressure | Rain* | Wind** | Luminosity | Snow |
|---|---|---|---|---|---|---|---|
| 1777626066 | 29.44° C | 37% | 1016.4 hPa | - | - | - | - |
| 1777625166 | 30° C | 34% | 1016.2 hPa | - | - | - | - |
| 1777624266 | 29.44° C | 34% | 1016.1 hPa | - | - | - | - |
| 1777623366 | 29.44° C | 37% | 1016.1 hPa | - | - | - | - |
| 1777621566 | 26.67° C | 42% | 1015.9 hPa | - | - | - | - |
| 1777620666 | 25.56° C | 44% | 1015.8 hPa | - | - | - | - |
| 1777619766 | 26.67° C | 43% | 1015.8 hPa | - | - | - | - |
| 1777618866 | 25.56° C | 49% | 1015.8 hPa | - | - | - | - |
| 1777617966 | 21.67° C | 54% | 1016 hPa | - | - | - | - |
| 1777616165 | 16.11° C | 77% | 1015.8 hPa | - | - | - | - |
| 1777614365 | 14.44° C | 79% | 1015.4 hPa | - | - | - | - |
| 1777613465 | 13.89° C | 79% | 1015.5 hPa | - | - | - | - |
| 1777612565 | 13.89° C | 81% | 1015.4 hPa | - | - | - | - |
| 1777610765 | 14.44° C | 81% | 1015.2 hPa | - | - | - | - |
| 1777609865 | 14.44° C | 81% | 1015 hPa | - | - | - | - |
| 1777608965 | 14.44° C | 81% | 1015.1 hPa | - | - | - | - |
| 1777608065 | 14.44° C | 81% | 1015.1 hPa | - | - | - | - |
| 1777607165 | 15° C | 81% | 1015.2 hPa | - | - | - | - |
| 1777605365 | 15° C | 81% | 1015.2 hPa | - | - | - | - |
| 1777604465 | 15° C | 79% | 1015.2 hPa | - | - | - | - |
| 1777603565 | 15° C | 79% | 1015.1 hPa | - | - | - | - |
| 1777602664 | 15° C | 79% | 1015.1 hPa | - | - | - | - |
| 1777583763 | 18.89° C | 60% | 1014.9 hPa | - | - | - | - |
| 1777581963 | 19.44° C | 60% | 1014.6 hPa | - | - | - | - |
| 1777581063 | 20° C | 60% | 1014.3 hPa | - | - | - | - |
* Rain since midnight (hover to see other rain measurements)
** Current wind speed in m/s (hover to see current wind gust speed)